Time;durP1;ratioP1;P1;durP2;ratioP2;P2;SDS_P1;SDS_P2;PMS_P1;PMS_P2;Temp;Humidity;BMP_temperature;BMP_pressure;BME280_temperature;BME280_humidity;BME280_pressure;Samples;Min_cycle;Max_cycle;Signal;HPM_P1;HPM_P2
2022/06/10 00:01:38;;;;;;;6.63;2.90;;;;;;;11.05;88.48;96144.22;5042882;28;20192;-82
2022/06/10 00:04:03;;;;;;;6.27;2.73;;;;;;;11.07;88.38;96156.09;5059238;28;20652;-84
2022/06/10 00:06:29;;;;;;;4.57;2.40;;;;;;;11.13;88.19;96148.69;5060138;28;20189;-84
2022/06/10 00:08:54;;;;;;;3.70;1.80;;;;;;;11.05;87.89;96155.44;5078909;28;20200;-82
2022/06/10 00:11:19;;;;;;;5.63;2.53;;;;;;;10.98;88.32;96156.91;5076039;28;20182;-84
2022/06/10 00:13:46;;;;;;;6.83;2.17;;;;;;;11.00;88.71;96157.59;5062494;28;20195;-82
2022/06/10 00:16:13;;;;;;;6.17;2.23;;;;;;;11.01;88.28;96158.41;5077517;28;20208;-82
2022/06/10 00:18:38;;;;;;;7.50;2.03;;;;;;;10.99;88.74;96157.75;5064508;28;20283;-82
2022/06/10 00:21:07;;;;;;;4.87;2.23;;;;;;;10.96;89.00;96161.44;5066974;28;20277;-82
2022/06/10 00:23:32;;;;;;;7.77;2.00;;;;;;;10.99;88.58;96155.13;5064516;28;20180;-83
2022/06/10 00:25:58;;;;;;;8.67;2.30;;;;;;;10.92;89.35;96160.03;5082622;28;20180;-82
2022/06/10 00:28:23;;;;;;;13.77;3.70;;;;;;;10.93;89.26;96161.69;5067706;28;20234;-82
2022/06/10 00:30:49;;;;;;;5.90;2.40;;;;;;;10.86;89.66;96157.16;5067044;28;20181;-82
2022/06/10 00:33:15;;;;;;;3.17;2.07;;;;;;;10.86;89.58;96155.38;5093125;28;20177;-80
2022/06/10 00:35:41;;;;;;;5.77;2.83;;;;;;;10.85;89.57;96161.53;5099878;28;20188;-81
2022/06/10 00:38:07;;;;;;;8.73;2.63;;;;;;;10.86;89.88;96162.34;5086166;28;20199;-81
2022/06/10 00:40:35;;;;;;;8.43;2.70;;;;;;;10.82;90.25;96161.00;5085943;28;20165;-81
2022/06/10 00:43:01;;;;;;;5.00;2.50;;;;;;;10.78;90.29;96168.25;5086081;28;20157;-80
2022/06/10 00:45:50;;;;;;;4.93;3.20;;;;;;;10.82;90.06;96154.00;5085496;28;20418;-81
2022/06/10 00:48:25;;;;;;;5.93;2.40;;;;;;;10.77;90.70;96162.19;5082325;28;20178;-80
2022/06/10 00:50:51;;;;;;;6.20;2.53;;;;;;;10.79;90.22;96159.50;5077110;28;20173;-82
2022/06/10 00:53:20;;;;;;;5.23;2.23;;;;;;;10.83;90.04;96158.25;5055682;28;20235;-81
2022/06/10 00:55:46;;;;;;;4.43;2.30;;;;;;;10.83;90.27;96165.22;5077421;28;20200;-82
2022/06/10 00:58:19;;;;;;;5.13;3.20;;;;;;;10.85;89.84;96160.72;5064095;28;20193;-82
2022/06/10 01:00:45;;;;;;;5.03;2.70;;;;;;;10.86;89.78;96160.56;5041434;28;20671;-82
2022/06/10 01:03:11;;;;;;;5.67;2.20;;;;;;;10.89;89.67;96162.09;5069213;28;20279;-83
2022/06/10 01:05:36;;;;;;;5.60;2.60;;;;;;;10.80;89.78;96163.72;5075745;28;20226;-82
2022/06/10 01:08:05;;;;;;;5.73;2.57;;;;;;;10.85;89.72;96165.91;5075557;28;20200;-83
2022/06/10 01:10:46;;;;;;;6.27;2.70;;;;;;;10.84;90.05;96159.06;5075870;28;20188;-82
2022/06/10 01:13:42;;;;;;;6.43;2.40;;;;;;;10.79;90.27;96164.69;5075553;28;20179;-82
2022/06/10 01:16:29;;;;;;;9.07;3.27;;;;;;;10.81;90.59;96164.53;5057919;28;20212;-82
2022/06/10 01:19:46;;;;;;;9.53;2.70;;;;;;;10.74;91.00;96162.47;5058782;28;20207;-80
2022/06/10 01:22:20;;;;;;;5.70;2.50;;;;;;;10.75;90.70;96165.88;5058121;28;20215;-81
2022/06/10 01:24:49;;;;;;;9.83;2.73;;;;;;;10.64;91.50;96161.63;5054028;28;20199;-82
2022/06/10 01:27:48;;;;;;;12.87;3.27;;;;;;;10.59;91.79;96157.78;5054926;28;20189;-81
2022/06/10 01:30:20;;;;;;;8.90;2.50;;;;;;;10.59;92.06;96160.38;5054141;28;20189;-82
2022/06/10 01:32:52;;;;;;;6.70;2.27;;;;;;;10.59;91.78;96168.16;5055213;28;20568;-82
2022/06/10 01:35:25;;;;;;;10.27;3.20;;;;;;;10.57;91.99;96159.69;5054223;28;20209;-82
2022/06/10 01:38:09;;;;;;;5.80;2.53;;;;;;;10.58;92.13;96154.38;5072417;28;20216;-83
2022/06/10 01:40:42;;;;;;;5.00;2.40;;;;;;;10.59;92.01;96163.78;5072520;28;20187;-82
2022/06/10 01:43:22;;;;;;;5.90;2.67;;;;;;;10.59;91.76;96166.38;5053998;28;20568;-81
2022/06/10 01:45:52;;;;;;;7.13;2.70;;;;;;;10.64;91.82;96168.59;5053467;28;20185;-82
2022/06/10 01:48:29;;;;;;;3.83;2.07;;;;;;;10.64;91.82;96169.44;5054346;28;20193;-82
2022/06/10 01:51:00;;;;;;;6.27;2.90;;;;;;;10.65;91.44;96162.44;5038052;28;20188;-83
2022/06/10 01:53:29;;;;;;;5.30;2.30;;;;;;;10.65;91.36;96167.66;5038070;28;20280;-82
2022/06/10 01:56:03;;;;;;;5.13;2.67;;;;;;;10.60;92.08;96162.00;5054072;28;20584;-82
2022/06/10 01:58:34;;;;;;;5.47;2.73;;;;;;;10.58;91.99;96161.34;5037565;28;20209;-83
2022/06/10 02:01:13;;;;;;;7.10;2.90;;;;;;;10.59;91.70;96162.97;5054027;28;20177;-83
2022/06/10 02:03:47;;;;;;;9.53;2.67;;;;;;;10.57;92.18;96170.91;5037388;28;20185;-82
2022/06/10 02:06:19;;;;;;;6.63;2.43;;;;;;;10.61;91.90;96166.28;5017366;28;1042474;-82
2022/06/10 02:08:49;;;;;;;5.53;2.77;;;;;;;10.56;92.09;96171.03;5055494;28;20193;-83
2022/06/10 02:11:17;;;;;;;4.77;2.60;;;;;;;10.55;91.82;96172.00;5038673;28;20653;-82
2022/06/10 02:14:11;;;;;;;7.37;2.97;;;;;;;10.50;92.54;96174.97;5037573;28;20173;-80
2022/06/10 02:16:40;;;;;;;6.53;2.40;;;;;;;10.55;92.09;96172.00;5037384;28;20209;-83
2022/06/10 02:19:16;;;;;;;5.80;2.40;;;;;;;10.54;91.92;96172.97;5038304;28;20197;-83
2022/06/10 02:21:48;;;;;;;2.60;2.07;;;;;;;10.61;91.68;96176.69;5054924;28;20223;-82
2022/06/10 02:24:20;;;;;;;6.40;2.70;;;;;;;10.57;91.98;96175.28;5054274;28;20514;-83
2022/06/10 02:26:47;;;;;;;5.73;2.87;;;;;;;10.49;92.66;96181.94;5054517;28;21025;-82
2022/06/10 02:29:16;;;;;;;8.43;2.50;;;;;;;10.43;92.97;96174.69;5053547;28;20190;-83
2022/06/10 02:31:50;;;;;;;3.87;2.20;;;;;;;10.52;92.51;96185.25;5037649;28;20197;-82
2022/06/10 02:34:15;;;;;;;6.20;2.67;;;;;;;10.52;92.40;96178.28;5053899;28;20207;-82
2022/06/10 02:36:49;;;;;;;7.77;2.67;;;;;;;10.43;93.15;96187.69;5054181;28;20287;-84
2022/06/10 02:39:25;;;;;;;6.60;2.73;;;;;;;10.46;92.98;96184.00;5037664;28;20200;-82
2022/06/10 02:42:07;;;;;;;4.77;2.47;;;;;;;10.44;93.14;96191.09;5054020;28;20578;-83
2022/06/10 02:44:59;;;;;;;8.30;3.43;;;;;;;10.37;93.73;96189.97;5037059;28;20199;-81
2022/06/10 02:47:40;;;;;;;5.90;2.70;;;;;;;10.42;93.22;96188.63;5035454;28;20785;-81
2022/06/10 02:50:07;;;;;;;5.37;2.50;;;;;;;10.44;93.30;96191.91;5038094;28;20552;-81
2022/06/10 02:52:34;;;;;;;8.77;3.10;;;;;;;10.42;93.28;96188.63;5037167;28;20177;-82
2022/06/10 02:54:59;;;;;;;7.80;2.53;;;;;;;10.35;93.74;96192.72;5036765;28;20173;-81
2022/06/10 03:03:21;;;;;;;4.97;2.80;;;;;;;10.41;93.54;96209.50;5072229;28;20667;-83
2022/06/10 03:06:07;;;;;;;7.20;3.13;;;;;;;10.47;92.89;96198.63;5036709;28;20177;-82
2022/06/10 03:08:38;;;;;;;6.50;2.50;;;;;;;10.41;92.78;96205.16;5037615;28;20559;-83
2022/06/10 03:11:27;;;;;;;8.30;2.67;;;;;;;10.46;92.27;96210.78;5053826;28;20199;-84
2022/06/10 03:14:18;;;;;;;7.50;3.03;;;;;;;10.41;92.46;96207.75;5053514;28;20177;-83
2022/06/10 03:17:30;;;;;;;5.83;2.60;;;;;;;10.42;92.64;96213.75;5071589;28;20223;-83
2022/06/10 03:20:18;;;;;;;5.83;2.70;;;;;;;10.42;92.35;96217.19;5049867;28;20613;-82
2022/06/10 03:23:38;;;;;;;7.20;3.27;;;;;;;10.46;91.91;96221.16;5053893;28;20198;-83
2022/06/10 03:26:14;;;;;;;4.60;2.80;;;;;;;10.49;91.74;96220.91;5012637;28;20673;-82
2022/06/10 03:28:49;;;;;;;5.10;2.43;;;;;;;10.55;90.77;96219.56;5048415;28;20241;-83
2022/06/10 03:31:19;;;;;;;6.97;2.90;;;;;;;10.54;91.33;96222.28;5052978;28;20222;-81
2022/06/10 03:33:59;;;;;;;4.53;2.47;;;;;;;10.57;91.13;96220.25;5054642;28;20264;-82
2022/06/10 03:36:25;;;;;;;9.03;2.53;;;;;;;10.63;90.75;96214.53;5057622;28;20605;-82
2022/06/10 03:38:52;;;;;;;7.17;2.90;;;;;;;10.66;90.35;96213.44;5040731;28;20204;-81
2022/06/10 03:41:34;;;;;;;7.73;3.53;;;;;;;10.69;90.38;96220.97;5041465;28;20176;-81
2022/06/10 03:44:04;;;;;;;7.10;2.30;;;;;;;10.82;90.13;96226.75;5042289;28;20271;-81
2022/06/10 03:46:32;;;;;;;8.60;3.97;;;;;;;10.81;89.22;96225.13;5027816;28;20208;-81
2022/06/10 03:48:58;;;;;;;6.23;2.70;;;;;;;10.86;89.28;96224.72;5043196;28;20203;-81
2022/06/10 03:51:24;;;;;;;4.93;2.47;;;;;;;11.17;87.48;96230.69;5061766;28;20224;-81
2022/06/10 03:53:49;;;;;;;6.57;2.70;;;;;;;12.02;83.04;96232.63;5042010;28;20716;-81
2022/06/10 03:56:21;;;;;;;3.37;2.03;;;;;;;12.96;77.72;96243.81;5042736;28;20238;-81
2022/06/10 03:58:46;;;;;;;4.90;2.00;;;;;;;13.45;74.94;96239.16;5061663;28;20549;-82
2022/06/10 04:01:12;;;;;;;4.73;1.93;;;;;;;14.24;72.73;96239.16;5043931;28;20183;-83
2022/06/10 04:03:37;;;;;;;5.53;1.73;;;;;;;15.16;68.51;96242.91;5077933;28;20177;-82
2022/06/10 04:06:03;;;;;;;5.20;1.60;;;;;;;15.73;63.59;96250.91;5059013;28;20176;-83
2022/06/10 04:08:28;;;;;;;8.83;2.00;;;;;;;15.70;63.52;96253.84;5058845;28;20276;-82
2022/06/10 04:10:54;;;;;;;5.00;1.35;;;;;;;16.12;61.61;96253.69;5059950;28;20291;-80
2022/06/10 04:13:20;;;;;;;9.95;2.08;;;;;;;16.65;59.37;96255.75;5059797;28;20641;-83
2022/06/10 04:15:46;;;;;;;3.88;1.30;;;;;;;17.08;57.30;96258.91;5043140;28;20227;-83
2022/06/10 04:18:11;;;;;;;5.25;1.58;;;;;;;17.46;56.67;96261.69;5059765;28;20751;-82
2022/06/10 04:20:38;;;;;;;3.58;1.40;;;;;;;17.61;55.71;96267.81;5079589;28;20253;-81
2022/06/10 04:23:04;;;;;;;6.28;1.40;;;;;;;18.09;52.77;96268.50;5052172;28;20189;-83
2022/06/10 04:25:31;;;;;;;2.30;1.20;;;;;;;18.48;52.39;96260.44;5054910;28;20189;-84
2022/06/10 04:27:56;;;;;;;3.28;1.25;;;;;;;18.41;52.15;96264.78;5056916;28;20212;-81
2022/06/10 04:30:35;;;;;;;4.97;1.85;;;;;;;19.40;48.70;96262.69;5062514;28;20166;-81
2022/06/10 04:33:02;;;;;;;3.50;1.30;;;;;;;19.34;49.04;96266.88;5070390;28;20579;-83
2022/06/10 04:35:28;;;;;;;3.72;1.30;;;;;;;19.91;46.78;96267.94;5047267;28;20228;-82
2022/06/10 04:37:55;;;;;;;3.45;1.27;;;;;;;19.64;47.39;96264.22;5061880;28;20204;-85
2022/06/10 04:40:24;;;;;;;3.92;1.52;;;;;;;21.14;45.54;96272.75;5044474;28;20241;-85
2022/06/10 04:42:50;;;;;;;6.15;1.58;;;;;;;21.33;43.38;96279.16;5044317;28;20341;-82
2022/06/10 04:45:19;;;;;;;4.43;1.52;;;;;;;20.75;45.22;96270.66;5077121;28;20588;-81
2022/06/10 04:47:44;;;;;;;2.28;1.40;;;;;;;21.56;42.62;96282.31;5043391;28;20197;-83
2022/06/10 04:50:11;;;;;;;4.82;1.65;;;;;;;21.64;42.21;96274.16;5043642;28;20241;-84
2022/06/10 04:52:37;;;;;;;4.65;1.20;;;;;;;21.87;41.73;96279.13;5062263;28;20236;-82
2022/06/10 04:55:04;;;;;;;3.55;1.48;;;;;;;21.94;41.88;96279.13;5045472;28;20173;-84
2022/06/10 04:57:29;;;;;;;3.50;1.50;;;;;;;22.24;41.32;96283.06;5031048;28;20193;-85
2022/06/10 04:59:55;;;;;;;2.42;1.15;;;;;;;22.38;40.44;96283.09;5066721;28;20801;-84
2022/06/10 05:02:21;;;;;;;2.13;1.25;;;;;;;23.38;38.60;96277.41;5063743;28;20545;-84
2022/06/10 05:04:47;;;;;;;2.60;1.20;;;;;;;23.04;38.92;96285.69;5061006;28;21029;-83
2022/06/10 05:07:12;;;;;;;2.20;1.10;;;;;;;23.13;39.04;96292.38;5059703;28;20181;-84
2022/06/10 05:09:37;;;;;;;6.38;1.48;;;;;;;22.94;39.84;96290.59;5063886;28;20232;-84
2022/06/10 05:12:03;;;;;;;4.10;1.10;;;;;;;23.56;38.10;96297.13;5052125;28;20179;-84
2022/06/10 05:14:28;;;;;;;2.95;1.10;;;;;;;23.16;39.71;96294.63;5051089;28;20248;-86
2022/06/10 05:16:56;;;;;;;3.97;1.25;;;;;;;24.03;37.01;96298.56;5047343;28;20208;-86
2022/06/10 05:19:21;;;;;;;3.67;1.50;;;;;;;23.45;38.52;96293.31;5050097;28;20200;-85
2022/06/10 05:21:46;;;;;;;2.85;1.08;;;;;;;23.81;38.36;96298.06;5058931;28;20199;-83
2022/06/10 05:24:11;;;;;;;4.10;1.52;;;;;;;24.70;37.01;96302.38;5059723;28;20176;-85
2022/06/10 05:26:37;;;;;;;3.30;1.17;;;;;;;24.39;37.20;96307.75;5061778;28;20566;-84
2022/06/10 05:29:02;;;;;;;4.88;1.30;;;;;;;24.35;37.15;96299.38;5061458;28;20208;-85
2022/06/10 05:31:30;;;;;;;3.28;1.40;;;;;;;25.83;35.21;96306.53;5061326;28;20184;-85
2022/06/10 05:37:25;;;;;;;2.72;1.42;;;;;;;25.47;35.03;96307.34;5097129;28;20207;-85
2022/06/10 05:39:52;;;;;;;2.08;1.10;;;;;;;26.39;35.08;96314.13;5061320;28;20281;-83
2022/06/10 05:42:17;;;;;;;4.20;1.55;;;;;;;26.41;33.66;96317.38;5078302;28;20180;-83
2022/06/10 05:44:45;;;;;;;4.00;1.10;;;;;;;26.72;33.81;96318.13;5079968;28;20203;-83
2022/06/10 05:47:14;;;;;;;5.15;1.95;;;;;;;27.11;32.87;96321.97;5080500;28;20624;-83
2022/06/10 05:49:48;;;;;;;4.63;1.50;;;;;;;27.14;31.86;96326.06;5044243;28;20250;-83
2022/06/10 05:52:15;;;;;;;4.97;1.08;;;;;;;27.67;30.60;96317.88;5059472;28;20628;-82
2022/06/10 05:54:42;;;;;;;2.30;1.20;;;;;;;27.35;31.33;96331.56;5058243;28;20259;-83
2022/06/10 05:57:08;;;;;;;5.30;1.38;;;;;;;29.46;27.28;96327.00;5055910;28;20207;-84
2022/06/10 05:59:34;;;;;;;3.28;1.20;;;;;;;29.44;27.54;96327.25;5039998;28;20229;-83
2022/06/10 06:02:07;;;;;;;3.53;1.13;;;;;;;29.01;27.56;96325.31;5039999;28;20267;-83
2022/06/10 06:04:32;;;;;;;2.30;0.98;;;;;;;27.79;29.28;96326.63;5044417;28;20191;-83
2022/06/10 06:06:58;;;;;;;1.95;1.17;;;;;;;27.66;29.20;96332.25;5052461;28;20184;-82
2022/06/10 06:09:23;;;;;;;3.08;1.40;;;;;;;27.32;29.85;96332.06;5050850;28;20267;-82
2022/06/10 06:11:50;;;;;;;6.32;1.38;;;;;;;27.45;29.53;96338.19;5043761;28;20181;-82
2022/06/10 06:14:18;;;;;;;3.63;1.00;;;;;;;27.56;29.49;96332.00;5058394;28;20173;-82
2022/06/10 06:16:49;;;;;;;3.15;1.33;;;;;;;26.51;31.22;96338.94;5042441;28;20201;-81
2022/06/10 06:19:14;;;;;;;4.80;1.50;;;;;;;26.80;31.00;96342.56;5057990;28;20193;-81
2022/06/10 06:21:40;;;;;;;4.07;1.20;;;;;;;28.21;26.75;96343.19;5058107;28;20632;-82
2022/06/10 06:24:05;;;;;;;4.28;1.38;;;;;;;28.30;28.10;96338.31;5058798;28;20176;-82
2022/06/10 06:26:30;;;;;;;4.90;1.40;;;;;;;28.14;29.68;96344.38;5073198;28;20172;-82
2022/06/10 06:28:56;;;;;;;3.70;2.30;;;;;;;26.27;33.53;96343.38;5057304;28;20207;-83
2022/06/10 06:31:22;;;;;;;4.53;1.75;;;;;;;27.61;31.40;96342.78;5060225;28;20572;-82
2022/06/10 06:33:47;;;;;;;2.03;1.25;;;;;;;26.46;34.30;96352.13;5070653;28;20189;-81
2022/06/10 06:36:18;;;;;;;3.25;1.33;;;;;;;26.05;35.45;96342.22;5057273;28;20208;-82
2022/06/10 06:38:43;;;;;;;2.05;1.23;;;;;;;27.11;32.91;96345.97;5065221;28;20204;-82
2022/06/10 06:41:11;;;;;;;4.15;1.33;;;;;;;26.03;35.41;96348.81;5061295;28;20179;-82
2022/06/10 06:43:36;;;;;;;4.18;1.10;;;;;;;26.06;36.35;96345.69;5079219;28;20247;-82
2022/06/10 06:46:02;;;;;;;3.67;1.30;;;;;;;26.28;36.24;96349.50;5061404;28;20207;-83
2022/06/10 06:48:27;;;;;;;3.58;1.20;;;;;;;27.70;32.00;96344.06;5079272;28;20220;-81
2022/06/10 06:50:52;;;;;;;5.03;1.52;;;;;;;27.33;32.91;96351.53;5062071;28;20189;-82
2022/06/10 06:53:18;;;;;;;4.07;1.42;;;;;;;29.10;29.96;96358.63;5061510;28;20184;-82
2022/06/10 06:55:44;;;;;;;4.97;1.60;;;;;;;26.41;34.97;96351.16;5061284;28;20215;-82
2022/06/10 06:58:12;;;;;;;3.55;1.45;;;;;;;28.08;31.66;96353.34;5062315;28;20717;-83
2022/06/10 07:00:38;;;;;;;3.20;1.20;;;;;;;27.01;32.54;96353.72;5078273;28;20172;-81
2022/06/10 07:03:04;;;;;;;2.10;1.25;;;;;;;27.68;33.16;96356.84;5096637;28;20179;-82
2022/06/10 07:05:31;;;;;;;4.28;1.38;;;;;;;26.62;34.17;96361.31;5059931;28;20651;-82
2022/06/10 07:07:57;;;;;;;4.95;1.38;;;;;;;25.44;36.79;96351.13;5060667;28;20219;-83
2022/06/10 07:10:22;;;;;;;3.70;1.38;;;;;;;27.46;31.70;96367.28;5061129;28;20180;-83
2022/06/10 07:12:48;;;;;;;3.53;1.65;;;;;;;26.12;34.39;96353.59;5061654;28;20604;-83
2022/06/10 07:15:14;;;;;;;3.03;1.35;;;;;;;25.97;33.92;96359.34;5060406;28;20563;-82
2022/06/10 07:17:40;;;;;;;4.72;1.10;;;;;;;25.62;36.14;96355.63;5077843;28;20201;-82
2022/06/10 07:20:07;;;;;;;3.78;1.40;;;;;;;25.39;36.74;96353.66;5078725;28;20201;-82
2022/06/10 07:22:32;;;;;;;3.97;1.38;;;;;;;23.67;40.49;96355.63;5061845;28;20314;-81
2022/06/10 07:24:57;;;;;;;4.28;1.42;;;;;;;24.22;37.76;96357.84;5077441;28;20218;-81
2022/06/10 07:27:23;;;;;;;4.20;1.35;;;;;;;24.58;36.97;96358.03;5061539;28;20173;-83
2022/06/10 07:29:49;;;;;;;5.43;1.42;;;;;;;25.28;35.70;96362.38;5078041;28;20542;-83
2022/06/10 07:32:14;;;;;;;6.30;1.52;;;;;;;25.92;33.72;96355.72;5061046;28;20670;-83
2022/06/10 07:34:39;;;;;;;4.00;1.38;;;;;;;25.34;36.31;96356.16;5060950;28;20229;-83
2022/06/10 07:37:05;;;;;;;2.53;1.30;;;;;;;24.95;37.65;96354.66;5078711;28;20215;-81
2022/06/10 07:39:34;;;;;;;1.80;1.05;;;;;;;24.66;37.62;96348.19;5096677;28;20257;-81
2022/06/10 07:42:02;;;;;;;4.07;1.60;;;;;;;24.64;37.74;96355.53;5061976;28;20177;-82
2022/06/10 07:44:34;;;;;;;3.10;1.60;;;;;;;25.06;38.41;96357.44;5078525;28;20177;-80
2022/06/10 07:47:02;;;;;;;5.65;1.60;;;;;;;24.87;38.49;96358.41;5078406;28;20165;-82
2022/06/10 07:49:27;;;;;;;4.13;1.20;;;;;;;23.85;39.75;96348.81;5061549;28;20196;-81
2022/06/10 07:51:53;;;;;;;4.93;1.30;;;;;;;23.40;41.37;96346.94;5078704;28;20233;-81
2022/06/10 07:54:18;;;;;;;6.05;1.60;;;;;;;21.84;45.18;96350.09;5061051;28;20671;-82
2022/06/10 07:56:44;;;;;;;3.78;2.03;;;;;;;23.93;41.55;96343.28;5061547;28;20687;-82
2022/06/10 07:59:10;;;;;;;3.55;1.38;;;;;;;25.00;37.70;96347.69;5062265;28;20246;-82
2022/06/10 08:01:35;;;;;;;3.80;1.48;;;;;;;24.38;38.56;96341.41;5079436;28;20260;-82
2022/06/10 08:04:01;;;;;;;5.75;1.65;;;;;;;24.18;38.70;96340.69;5078438;28;20185;-82
2022/06/10 08:06:28;;;;;;;5.25;1.40;;;;;;;23.21;40.36;96339.03;5078171;28;20185;-82
2022/06/10 08:08:53;;;;;;;5.72;1.90;;;;;;;22.80;40.53;96348.03;5061005;28;20268;-82
2022/06/10 08:11:19;;;;;;;4.57;1.65;;;;;;;22.80;41.26;96345.38;5062651;28;20243;-80
2022/06/10 08:13:45;;;;;;;4.85;1.48;;;;;;;22.50;41.28;96348.41;5063032;28;20196;-82
2022/06/10 08:16:10;;;;;;;2.70;1.38;;;;;;;22.81;41.39;96344.38;5064290;28;20754;-83
2022/06/10 08:18:37;;;;;;;5.32;1.80;;;;;;;22.50;42.13;96347.59;5064146;28;20200;-83
2022/06/10 08:23:46;;;;;;;6.60;1.73;;;;;;;21.28;44.26;96343.13;5086800;28;20183;-82
2022/06/10 08:26:12;;;;;;;4.82;1.90;;;;;;;22.05;43.27;96340.19;5067166;28;20628;-80
2022/06/10 08:28:40;;;;;;;4.22;1.73;;;;;;;21.52;43.89;96344.47;5101559;28;20234;-82
2022/06/10 08:31:05;;;;;;;3.97;1.65;;;;;;;22.16;42.95;96351.22;5081468;28;20543;-82
2022/06/10 08:33:31;;;;;;;3.53;1.92;;;;;;;22.76;41.50;96352.09;5065340;28;20176;-82
2022/06/10 08:35:57;;;;;;;3.85;1.73;;;;;;;21.07;43.73;96351.09;5065720;28;20200;-81
2022/06/10 08:38:24;;;;;;;3.60;1.65;;;;;;;21.22;44.75;96349.19;5082674;28;20676;-81
2022/06/10 08:40:52;;;;;;;5.57;1.60;;;;;;;22.17;43.77;96356.31;5081210;28;20172;-82
2022/06/10 08:43:31;;;;;;;4.05;1.77;;;;;;;22.11;42.12;96356.31;5064919;28;20207;-82
2022/06/10 08:46:24;;;;;;;4.43;1.52;;;;;;;22.52;41.55;96351.66;5100620;28;20196;-81
2022/06/10 08:49:02;;;;;;;3.17;1.33;;;;;;;22.49;41.24;96345.97;5069747;28;20224;-84
2022/06/10 08:51:36;;;;;;;2.72;1.67;;;;;;;21.73;41.88;96349.66;5084489;28;20278;-81
2022/06/10 08:54:10;;;;;;;3.33;1.38;;;;;;;21.38;43.83;96354.19;5082375;28;20191;-82
2022/06/10 08:56:42;;;;;;;2.72;1.48;;;;;;;21.40;45.86;96346.06;5064471;28;20199;-82
2022/06/10 08:59:50;;;;;;;5.13;1.65;;;;;;;21.27;44.17;96345.97;5064989;28;20695;-81
2022/06/10 09:02:32;;;;;;;5.47;1.80;;;;;;;21.74;43.99;96345.19;5099544;28;20184;-82
2022/06/10 09:05:07;;;;;;;2.97;1.38;;;;;;;21.10;46.06;96348.88;5062717;28;21261;-81
2022/06/10 09:07:42;;;;;;;6.32;1.83;;;;;;;20.26;46.70;96353.25;5064145;28;20188;-81
2022/06/10 09:10:23;;;;;;;4.38;1.50;;;;;;;19.82;47.88;96350.78;5063820;28;20682;-83
2022/06/10 09:13:17;;;;;;;3.80;1.85;;;;;;;19.72;48.32;96340.53;5062553;28;20176;-85
2022/06/10 09:15:53;;;;;;;5.72;1.75;;;;;;;19.12;50.74;96354.72;5062784;28;20196;-82
2022/06/10 09:18:40;;;;;;;6.80;1.75;;;;;;;18.99;50.69;96355.31;5077971;28;20214;-83
2022/06/10 09:21:17;;;;;;;3.13;1.50;;;;;;;19.48;49.38;96357.41;5061036;28;20200;-82
2022/06/10 09:23:44;;;;;;;4.22;1.52;;;;;;;19.61;49.01;96348.88;5077756;28;20172;-84
2022/06/10 09:26:19;;;;;;;4.25;1.60;;;;;;;19.72;47.84;96348.44;5060665;28;20176;-82
2022/06/10 09:28:45;;;;;;;5.10;1.75;;;;;;;19.60;48.83;96358.59;5078284;28;20663;-82
2022/06/10 09:31:33;;;;;;;4.65;1.60;;;;;;;19.45;48.86;96358.63;5060289;28;20177;-82
2022/06/10 09:34:16;;;;;;;2.83;1.65;;;;;;;19.54;49.25;96359.34;5077685;28;20508;-82
2022/06/10 09:36:47;;;;;;;3.47;1.40;;;;;;;19.49;50.02;96359.06;5061324;28;20196;-85
2022/06/10 09:42:16;;;;;;;3.58;1.92;;;;;;;18.93;52.93;96356.88;5081039;28;20211;-82
2022/06/10 09:45:02;;;;;;;6.68;2.05;;;;;;;19.29;50.91;96361.44;5064914;28;20177;-83
2022/06/10 09:47:47;;;;;;;4.68;1.67;;;;;;;19.59;49.55;96351.72;5119326;28;20221;-83
2022/06/10 09:50:31;;;;;;;4.80;1.80;;;;;;;19.64;52.11;96359.88;5085143;28;20167;-81
2022/06/10 09:53:14;;;;;;;5.07;1.70;;;;;;;19.81;50.88;96349.97;5084941;28;20161;-82
2022/06/10 09:55:58;;;;;;;8.93;1.75;;;;;;;19.60;50.98;96355.16;5105041;28;20205;-82
2022/06/10 09:58:41;;;;;;;2.95;1.63;;;;;;;20.20;48.96;96351.38;5096170;28;20188;-82
2022/06/10 10:01:22;;;;;;;5.00;1.90;;;;;;;20.26;48.78;96353.25;5060272;28;20540;-83
2022/06/10 10:04:09;;;;;;;6.32;1.98;;;;;;;19.97;50.88;96354.19;5076031;28;20180;-82
2022/06/10 10:06:39;;;;;;;3.20;1.67;;;;;;;20.58;48.71;96357.22;5076322;28;20644;-83
2022/06/10 10:09:45;;;;;;;4.13;1.77;;;;;;;20.82;48.21;96351.53;5059596;28;20197;-82
2022/06/10 10:12:44;;;;;;;4.47;1.75;;;;;;;21.25;48.95;96350.59;5076574;28;20168;-84
2022/06/10 10:15:19;;;;;;;4.85;1.67;;;;;;;21.99;44.86;96345.44;5076755;28;20611;-83
2022/06/10 10:17:59;;;;;;;4.18;1.98;;;;;;;21.46;45.90;96347.88;5081007;28;20208;-83
2022/06/10 10:20:51;;;;;;;9.05;2.08;;;;;;;20.51;45.62;96346.63;5059159;28;20647;-84
2022/06/10 10:23:20;;;;;;;5.82;1.80;;;;;;;20.71;45.07;96340.69;5060419;28;20190;-84
2022/06/10 10:25:46;;;;;;;3.80;1.60;;;;;;;20.35;45.12;96336.31;5075852;28;20168;-82
2022/06/10 10:28:19;;;;;;;3.33;1.60;;;;;;;20.75;44.85;96342.75;5076192;28;20207;-84
2022/06/10 10:31:05;;;;;;;5.93;2.00;;;;;;;20.49;45.66;96345.97;5058659;28;20183;-84
2022/06/10 10:33:31;;;;;;;4.47;1.90;;;;;;;21.23;42.88;96339.41;5057629;28;20173;-84
2022/06/10 10:35:57;;;;;;;4.43;1.60;;;;;;;21.36;43.84;96342.16;5075580;28;20679;-84
2022/06/10 10:38:39;;;;;;;3.22;1.52;;;;;;;21.69;43.06;96343.13;5059399;28;20227;-83
2022/06/10 10:41:32;;;;;;;3.88;1.88;;;;;;;21.10;44.50;96343.59;5059371;28;20184;-85
2022/06/10 10:44:01;;;;;;;5.45;1.60;;;;;;;21.68;43.93;96344.13;5057967;28;20177;-83
2022/06/10 10:46:39;;;;;;;5.50;1.80;;;;;;;22.01;43.45;96346.09;5075362;28;20595;-84
2022/06/10 10:49:48;;;;;;;5.82;1.83;;;;;;;22.08;43.33;96348.75;5059331;28;20196;-84
2022/06/10 10:52:27;;;;;;;3.70;1.40;;;;;;;22.26;46.07;96344.53;4980558;28;20234;-84
2022/06/10 10:54:59;;;;;;;9.02;1.88;;;;;;;22.38;43.47;96344.75;4978134;28;20245;-85
2022/06/10 10:57:29;;;;;;;6.35;1.80;;;;;;;23.00;42.26;96345.41;4978306;28;20210;-84
2022/06/10 11:00:21;;;;;;;4.45;1.80;;;;;;;22.63;41.69;96344.97;4994985;28;20564;-84
2022/06/10 11:02:51;;;;;;;4.57;1.60;;;;;;;22.00;42.74;96342.63;4994890;28;20257;-84
2022/06/10 11:05:24;;;;;;;6.68;1.60;;;;;;;21.60;43.85;96341.66;4978824;28;20186;-84
2022/06/10 11:08:20;;;;;;;4.82;1.60;;;;;;;22.54;42.76;96351.50;4978547;28;20229;-84
2022/06/10 11:11:03;;;;;;;5.05;1.85;;;;;;;22.30;44.45;96343.13;4979217;28;20183;-83
2022/06/10 11:13:41;;;;;;;7.85;2.67;;;;;;;22.25;45.14;96344.72;4995077;28;20214;-84
2022/06/10 11:16:29;;;;;;;4.05;1.70;;;;;;;22.25;43.19;96340.25;5011601;28;20198;-84
2022/06/10 11:19:05;;;;;;;1.85;1.60;;;;;;;22.77;41.36;96351.88;4995047;28;20298;-86
2022/06/10 11:21:31;;;;;;;5.88;1.65;;;;;;;22.85;42.91;96351.72;4995110;28;20551;-85
2022/06/10 11:23:57;;;;;;;6.97;2.20;;;;;;;22.32;42.53;96349.00;4993783;28;20266;-85
2022/06/10 11:26:28;;;;;;;5.38;1.98;;;;;;;22.20;43.76;96337.41;5044669;28;20184;-85
2022/06/10 11:29:07;;;;;;;4.35;1.83;;;;;;;22.24;42.82;96338.63;5058395;28;20778;-85
2022/06/10 11:31:57;;;;;;;5.07;1.80;;;;;;;22.26;43.65;96336.59;5059194;28;20640;-85
2022/06/10 11:34:43;;;;;;;5.18;1.80;;;;;;;21.04;47.98;96325.91;5057359;28;20184;-84
2022/06/10 11:37:37;;;;;;;3.65;1.52;;;;;;;21.77;46.49;96332.38;5058959;28;20207;-85
2022/06/10 11:40:12;;;;;;;4.30;1.52;;;;;;;22.39;43.94;96325.22;5058251;28;20181;-85
2022/06/10 11:42:45;;;;;;;7.95;2.17;;;;;;;22.15;43.02;96323.94;5058403;28;20222;-85
2022/06/10 11:45:22;;;;;;;4.72;1.70;;;;;;;22.84;42.16;96323.59;5057968;28;20223;-84
2022/06/10 11:48:01;;;;;;;6.25;1.98;;;;;;;23.14;41.50;96331.09;5058761;28;20230;-85
2022/06/10 11:50:42;;;;;;;4.88;1.83;;;;;;;22.92;41.21;96330.53;5059090;28;20200;-85
2022/06/10 11:53:18;;;;;;;5.68;1.80;;;;;;;22.42;44.28;96323.97;5075457;28;20177;-85
2022/06/10 12:02:41;;;;;;;;;;;;;;;;;;;;;
2022/06/10 12:05:59;;;;;;;2.33;1.30;;;;;;;23.67;37.46;96312.41;5005943;28;20557;-84
2022/06/10 12:16:34;;;;;;;;;;;;;;;;;;;;;
2022/06/10 13:24:15;;;;;;;2.58;1.48;;;;;;;24.61;36.42;96268.34;4949836;23;20262;-85
2022/06/10 13:26:46;;;;;;;4.45;1.42;;;;;;;23.57;39.07;96274.88;4942618;28;20190;-84
2022/06/10 13:29:16;;;;;;;4.78;1.40;;;;;;;22.92;39.50;96272.25;4919986;29;20198;-84
2022/06/10 13:31:53;;;;;;;5.05;1.88;;;;;;;22.38;41.58;96275.16;4938629;29;20261;-84
2022/06/10 13:34:30;;;;;;;5.70;1.70;;;;;;;22.38;41.83;96283.09;4936693;29;20331;-85
2022/06/10 13:37:02;;;;;;;5.25;1.80;;;;;;;22.13;42.75;96277.56;4937697;29;20201;-87